sensor_id;sensor_type;location;lat;lon;timestamp;P1;durP1;ratioP1;P2;durP2;ratioP2
57730;SDS011;43570;47.476;19.040;2023-04-24T00:01:25;10.73;;;8.88;;
57730;SDS011;43570;47.476;19.040;2023-04-24T00:03:50;9.27;;;7.35;;
57730;SDS011;43570;47.476;19.040;2023-04-24T00:06:16;10.57;;;8.27;;
57730;SDS011;43570;47.476;19.040;2023-04-24T00:08:42;13.35;;;8.70;;
57730;SDS011;43570;47.476;19.040;2023-04-24T00:11:07;10.75;;;8.20;;
57730;SDS011;43570;47.476;19.040;2023-04-24T00:13:34;9.90;;;7.82;;
57730;SDS011;43570;47.476;19.040;2023-04-24T00:15:59;10.82;;;8.52;;
57730;SDS011;43570;47.476;19.040;2023-04-24T00:18:25;11.57;;;8.18;;
57730;SDS011;43570;47.476;19.040;2023-04-24T00:20:50;12.05;;;8.88;;
57730;SDS011;43570;47.476;19.040;2023-04-24T00:23:16;10.70;;;8.25;;
57730;SDS011;43570;47.476;19.040;2023-04-24T00:25:41;10.15;;;7.87;;
57730;SDS011;43570;47.476;19.040;2023-04-24T00:28:06;11.07;;;7.62;;
57730;SDS011;43570;47.476;19.040;2023-04-24T00:30:32;10.27;;;8.15;;
57730;SDS011;43570;47.476;19.040;2023-04-24T00:32:57;11.52;;;8.88;;
57730;SDS011;43570;47.476;19.040;2023-04-24T00:35:23;10.57;;;8.60;;
57730;SDS011;43570;47.476;19.040;2023-04-24T00:37:48;12.20;;;9.25;;
57730;SDS011;43570;47.476;19.040;2023-04-24T00:40:14;12.07;;;8.57;;
57730;SDS011;43570;47.476;19.040;2023-04-24T00:42:39;12.88;;;8.52;;
57730;SDS011;43570;47.476;19.040;2023-04-24T00:45:05;12.57;;;8.35;;
57730;SDS011;43570;47.476;19.040;2023-04-24T00:47:32;10.93;;;8.80;;
57730;SDS011;43570;47.476;19.040;2023-04-24T00:49:58;11.00;;;9.02;;
57730;SDS011;43570;47.476;19.040;2023-04-24T00:52:23;11.95;;;8.68;;
57730;SDS011;43570;47.476;19.040;2023-04-24T00:54:49;11.75;;;8.88;;
57730;SDS011;43570;47.476;19.040;2023-04-24T00:57:15;10.90;;;9.02;;
57730;SDS011;43570;47.476;19.040;2023-04-24T00:59:41;9.85;;;8.63;;
57730;SDS011;43570;47.476;19.040;2023-04-24T01:02:07;12.55;;;8.93;;
57730;SDS011;43570;47.476;19.040;2023-04-24T01:04:33;12.85;;;9.27;;
57730;SDS011;43570;47.476;19.040;2023-04-24T01:06:59;11.50;;;8.77;;
57730;SDS011;43570;47.476;19.040;2023-04-24T01:09:25;9.85;;;8.35;;
57730;SDS011;43570;47.476;19.040;2023-04-24T01:11:51;17.27;;;9.32;;
57730;SDS011;43570;47.476;19.040;2023-04-24T01:14:16;11.25;;;8.95;;
57730;SDS011;43570;47.476;19.040;2023-04-24T01:16:42;13.93;;;8.65;;
57730;SDS011;43570;47.476;19.040;2023-04-24T01:19:07;9.82;;;8.43;;
57730;SDS011;43570;47.476;19.040;2023-04-24T01:21:36;12.05;;;9.00;;
57730;SDS011;43570;47.476;19.040;2023-04-24T01:24:02;11.20;;;8.73;;
57730;SDS011;43570;47.476;19.040;2023-04-24T01:26:28;13.15;;;8.85;;
57730;SDS011;43570;47.476;19.040;2023-04-24T01:28:54;11.45;;;8.40;;
57730;SDS011;43570;47.476;19.040;2023-04-24T01:31:19;13.98;;;9.18;;
57730;SDS011;43570;47.476;19.040;2023-04-24T01:33:45;12.25;;;9.02;;
57730;SDS011;43570;47.476;19.040;2023-04-24T01:36:11;13.98;;;8.77;;
57730;SDS011;43570;47.476;19.040;2023-04-24T01:38:36;12.57;;;9.65;;
57730;SDS011;43570;47.476;19.040;2023-04-24T01:41:02;11.63;;;9.00;;
57730;SDS011;43570;47.476;19.040;2023-04-24T01:43:28;12.77;;;9.00;;
57730;SDS011;43570;47.476;19.040;2023-04-24T01:45:53;10.98;;;9.88;;
57730;SDS011;43570;47.476;19.040;2023-04-24T01:48:19;10.70;;;9.15;;
57730;SDS011;43570;47.476;19.040;2023-04-24T01:50:45;12.95;;;9.15;;
57730;SDS011;43570;47.476;19.040;2023-04-24T01:53:10;12.75;;;9.68;;
57730;SDS011;43570;47.476;19.040;2023-04-24T01:55:36;11.90;;;10.55;;
57730;SDS011;43570;47.476;19.040;2023-04-24T01:58:01;11.07;;;9.20;;
57730;SDS011;43570;47.476;19.040;2023-04-24T02:00:27;13.02;;;10.70;;
57730;SDS011;43570;47.476;19.040;2023-04-24T02:02:52;12.23;;;10.13;;
57730;SDS011;43570;47.476;19.040;2023-04-24T02:05:18;13.75;;;10.10;;
57730;SDS011;43570;47.476;19.040;2023-04-24T02:07:43;11.65;;;9.40;;
57730;SDS011;43570;47.476;19.040;2023-04-24T02:10:09;11.35;;;10.20;;
57730;SDS011;43570;47.476;19.040;2023-04-24T02:12:35;14.15;;;11.05;;
57730;SDS011;43570;47.476;19.040;2023-04-24T02:15:00;12.88;;;10.68;;
57730;SDS011;43570;47.476;19.040;2023-04-24T02:17:25;12.30;;;11.00;;
57730;SDS011;43570;47.476;19.040;2023-04-24T02:19:51;13.85;;;11.80;;
57730;SDS011;43570;47.476;19.040;2023-04-24T02:22:16;14.30;;;12.68;;
57730;SDS011;43570;47.476;19.040;2023-04-24T02:24:42;13.98;;;12.57;;
57730;SDS011;43570;47.476;19.040;2023-04-24T02:27:07;15.02;;;12.37;;
57730;SDS011;43570;47.476;19.040;2023-04-24T02:29:33;15.15;;;13.20;;
57730;SDS011;43570;47.476;19.040;2023-04-24T02:31:59;16.48;;;13.95;;
57730;SDS011;43570;47.476;19.040;2023-04-24T02:34:24;15.93;;;14.23;;
57730;SDS011;43570;47.476;19.040;2023-04-24T02:36:50;15.98;;;14.45;;
57730;SDS011;43570;47.476;19.040;2023-04-24T02:39:15;14.68;;;13.07;;
57730;SDS011;43570;47.476;19.040;2023-04-24T02:41:43;16.42;;;12.88;;
57730;SDS011;43570;47.476;19.040;2023-04-24T02:44:09;12.90;;;11.60;;
57730;SDS011;43570;47.476;19.040;2023-04-24T02:46:34;12.90;;;11.50;;
57730;SDS011;43570;47.476;19.040;2023-04-24T02:49:00;14.27;;;12.80;;
57730;SDS011;43570;47.476;19.040;2023-04-24T02:51:25;15.70;;;14.07;;
57730;SDS011;43570;47.476;19.040;2023-04-24T02:53:51;16.52;;;13.85;;
57730;SDS011;43570;47.476;19.040;2023-04-24T02:56:17;16.90;;;15.10;;
57730;SDS011;43570;47.476;19.040;2023-04-24T02:58:42;16.15;;;14.38;;
57730;SDS011;43570;47.476;19.040;2023-04-24T03:01:08;16.55;;;14.93;;
57730;SDS011;43570;47.476;19.040;2023-04-24T03:03:35;15.25;;;13.85;;
57730;SDS011;43570;47.476;19.040;2023-04-24T03:06:00;17.15;;;15.52;;
57730;SDS011;43570;47.476;19.040;2023-04-24T03:08:26;16.92;;;15.27;;
57730;SDS011;43570;47.476;19.040;2023-04-24T03:10:52;15.32;;;13.73;;
57730;SDS011;43570;47.476;19.040;2023-04-24T03:13:17;15.90;;;14.18;;
57730;SDS011;43570;47.476;19.040;2023-04-24T03:15:42;16.02;;;14.48;;
57730;SDS011;43570;47.476;19.040;2023-04-24T03:18:08;17.12;;;15.00;;
57730;SDS011;43570;47.476;19.040;2023-04-24T03:20:33;16.02;;;14.45;;
57730;SDS011;43570;47.476;19.040;2023-04-24T03:22:59;16.00;;;14.48;;
57730;SDS011;43570;47.476;19.040;2023-04-24T03:25:24;16.50;;;14.80;;
57730;SDS011;43570;47.476;19.040;2023-04-24T03:27:50;17.02;;;15.32;;
57730;SDS011;43570;47.476;19.040;2023-04-24T03:30:16;16.80;;;15.20;;
57730;SDS011;43570;47.476;19.040;2023-04-24T03:32:41;15.82;;;14.30;;
57730;SDS011;43570;47.476;19.040;2023-04-24T03:35:07;13.95;;;12.63;;
57730;SDS011;43570;47.476;19.040;2023-04-24T03:37:33;15.23;;;13.10;;
57730;SDS011;43570;47.476;19.040;2023-04-24T03:39:59;16.23;;;13.48;;
57730;SDS011;43570;47.476;19.040;2023-04-24T03:42:24;17.00;;;11.57;;
57730;SDS011;43570;47.476;19.040;2023-04-24T03:44:50;13.43;;;11.85;;
57730;SDS011;43570;47.476;19.040;2023-04-24T03:47:15;13.07;;;11.73;;
57730;SDS011;43570;47.476;19.040;2023-04-24T03:49:40;17.15;;;12.50;;
57730;SDS011;43570;47.476;19.040;2023-04-24T03:52:06;14.30;;;12.18;;
57730;SDS011;43570;47.476;19.040;2023-04-24T03:54:31;15.23;;;11.98;;
57730;SDS011;43570;47.476;19.040;2023-04-24T03:56:57;13.88;;;12.30;;
57730;SDS011;43570;47.476;19.040;2023-04-24T03:59:22;13.50;;;12.10;;
57730;SDS011;43570;47.476;19.040;2023-04-24T04:01:47;14.87;;;12.37;;
57730;SDS011;43570;47.476;19.040;2023-04-24T04:04:14;15.35;;;13.00;;
57730;SDS011;43570;47.476;19.040;2023-04-24T04:06:39;15.05;;;13.00;;
57730;SDS011;43570;47.476;19.040;2023-04-24T04:09:05;15.50;;;12.98;;
57730;SDS011;43570;47.476;19.040;2023-04-24T04:11:30;14.32;;;12.65;;
57730;SDS011;43570;47.476;19.040;2023-04-24T04:13:55;14.85;;;13.07;;
57730;SDS011;43570;47.476;19.040;2023-04-24T04:16:21;14.40;;;12.90;;
57730;SDS011;43570;47.476;19.040;2023-04-24T04:18:47;15.82;;;12.88;;
57730;SDS011;43570;47.476;19.040;2023-04-24T04:21:13;15.50;;;12.93;;
57730;SDS011;43570;47.476;19.040;2023-04-24T04:23:38;14.13;;;12.55;;
57730;SDS011;43570;47.476;19.040;2023-04-24T04:26:04;14.50;;;13.02;;
57730;SDS011;43570;47.476;19.040;2023-04-24T04:28:30;14.20;;;12.80;;
57730;SDS011;43570;47.476;19.040;2023-04-24T04:30:56;16.37;;;13.27;;
57730;SDS011;43570;47.476;19.040;2023-04-24T04:33:22;14.15;;;12.57;;
57730;SDS011;43570;47.476;19.040;2023-04-24T04:35:51;16.33;;;12.37;;
57730;SDS011;43570;47.476;19.040;2023-04-24T04:38:17;16.70;;;12.68;;
57730;SDS011;43570;47.476;19.040;2023-04-24T04:40:43;13.27;;;11.68;;
57730;SDS011;43570;47.476;19.040;2023-04-24T04:43:09;14.80;;;12.02;;
57730;SDS011;43570;47.476;19.040;2023-04-24T04:45:35;17.75;;;12.15;;
57730;SDS011;43570;47.476;19.040;2023-04-24T04:48:00;12.70;;;11.40;;
57730;SDS011;43570;47.476;19.040;2023-04-24T04:50:27;16.83;;;12.35;;
57730;SDS011;43570;47.476;19.040;2023-04-24T04:52:52;13.38;;;10.80;;
57730;SDS011;43570;47.476;19.040;2023-04-24T04:55:18;13.98;;;12.05;;
57730;SDS011;43570;47.476;19.040;2023-04-24T04:57:45;14.57;;;12.00;;
57730;SDS011;43570;47.476;19.040;2023-04-24T05:00:11;13.05;;;11.65;;
57730;SDS011;43570;47.476;19.040;2023-04-24T05:02:37;17.62;;;12.90;;
57730;SDS011;43570;47.476;19.040;2023-04-24T05:05:03;13.45;;;11.77;;
57730;SDS011;43570;47.476;19.040;2023-04-24T05:07:28;17.60;;;12.50;;
57730;SDS011;43570;47.476;19.040;2023-04-24T05:09:54;14.15;;;12.00;;
57730;SDS011;43570;47.476;19.040;2023-04-24T05:12:19;15.48;;;12.77;;
57730;SDS011;43570;47.476;19.040;2023-04-24T05:14:45;14.43;;;12.90;;
57730;SDS011;43570;47.476;19.040;2023-04-24T05:17:10;14.00;;;12.20;;
57730;SDS011;43570;47.476;19.040;2023-04-24T05:19:36;13.80;;;12.40;;
57730;SDS011;43570;47.476;19.040;2023-04-24T05:22:03;14.20;;;12.73;;
57730;SDS011;43570;47.476;19.040;2023-04-24T05:24:30;15.60;;;12.93;;
57730;SDS011;43570;47.476;19.040;2023-04-24T05:26:56;21.85;;;13.55;;
57730;SDS011;43570;47.476;19.040;2023-04-24T05:29:22;13.80;;;12.45;;
57730;SDS011;43570;47.476;19.040;2023-04-24T05:31:47;15.27;;;13.68;;
57730;SDS011;43570;47.476;19.040;2023-04-24T05:34:12;15.57;;;13.40;;
57730;SDS011;43570;47.476;19.040;2023-04-24T05:36:39;18.45;;;13.10;;
57730;SDS011;43570;47.476;19.040;2023-04-24T05:39:05;14.30;;;12.80;;
57730;SDS011;43570;47.476;19.040;2023-04-24T05:41:30;15.07;;;12.73;;
57730;SDS011;43570;47.476;19.040;2023-04-24T05:43:56;14.98;;;12.10;;
57730;SDS011;43570;47.476;19.040;2023-04-24T05:46:22;13.70;;;12.37;;
57730;SDS011;43570;47.476;19.040;2023-04-24T05:48:47;15.43;;;12.20;;
57730;SDS011;43570;47.476;19.040;2023-04-24T05:51:12;18.87;;;12.30;;
57730;SDS011;43570;47.476;19.040;2023-04-24T05:53:38;15.07;;;12.27;;
57730;SDS011;43570;47.476;19.040;2023-04-24T05:56:03;16.75;;;12.75;;
57730;SDS011;43570;47.476;19.040;2023-04-24T05:58:29;14.85;;;13.20;;
57730;SDS011;43570;47.476;19.040;2023-04-24T06:00:54;14.90;;;12.60;;
57730;SDS011;43570;47.476;19.040;2023-04-24T06:03:20;15.60;;;12.60;;
57730;SDS011;43570;47.476;19.040;2023-04-24T06:05:46;14.35;;;12.43;;
57730;SDS011;43570;47.476;19.040;2023-04-24T06:08:11;13.68;;;12.25;;
57730;SDS011;43570;47.476;19.040;2023-04-24T06:10:37;15.75;;;12.40;;
57730;SDS011;43570;47.476;19.040;2023-04-24T06:13:02;15.82;;;12.48;;
57730;SDS011;43570;47.476;19.040;2023-04-24T06:15:28;15.10;;;11.80;;
57730;SDS011;43570;47.476;19.040;2023-04-24T06:17:55;13.75;;;12.10;;
57730;SDS011;43570;47.476;19.040;2023-04-24T06:20:21;14.07;;;12.55;;
57730;SDS011;43570;47.476;19.040;2023-04-24T06:22:47;12.45;;;11.05;;
57730;SDS011;43570;47.476;19.040;2023-04-24T06:25:12;13.10;;;11.70;;
57730;SDS011;43570;47.476;19.040;2023-04-24T06:27:37;13.95;;;12.35;;
57730;SDS011;43570;47.476;19.040;2023-04-24T06:30:03;13.05;;;11.63;;
57730;SDS011;43570;47.476;19.040;2023-04-24T06:32:28;13.90;;;12.50;;
57730;SDS011;43570;47.476;19.040;2023-04-24T06:34:56;14.95;;;13.05;;
57730;SDS011;43570;47.476;19.040;2023-04-24T06:37:21;14.65;;;13.35;;
57730;SDS011;43570;47.476;19.040;2023-04-24T06:39:47;17.37;;;14.40;;
57730;SDS011;43570;47.476;19.040;2023-04-24T06:42:12;16.65;;;14.60;;
57730;SDS011;43570;47.476;19.040;2023-04-24T06:44:37;17.15;;;12.70;;
57730;SDS011;43570;47.476;19.040;2023-04-24T06:47:05;16.77;;;14.10;;
57730;SDS011;43570;47.476;19.040;2023-04-24T06:49:35;16.93;;;15.13;;
57730;SDS011;43570;47.476;19.040;2023-04-24T06:52:01;15.88;;;13.65;;
57730;SDS011;43570;47.476;19.040;2023-04-24T06:54:26;15.43;;;13.82;;
57730;SDS011;43570;47.476;19.040;2023-04-24T06:56:52;15.00;;;13.25;;
57730;SDS011;43570;47.476;19.040;2023-04-24T06:59:17;17.45;;;13.35;;
57730;SDS011;43570;47.476;19.040;2023-04-24T07:01:43;15.02;;;13.57;;
57730;SDS011;43570;47.476;19.040;2023-04-24T07:04:08;14.20;;;12.73;;
57730;SDS011;43570;47.476;19.040;2023-04-24T07:06:34;15.00;;;13.45;;
57730;SDS011;43570;47.476;19.040;2023-04-24T07:09:00;15.38;;;13.88;;
57730;SDS011;43570;47.476;19.040;2023-04-24T07:11:26;16.15;;;14.35;;
57730;SDS011;43570;47.476;19.040;2023-04-24T07:13:54;15.55;;;13.95;;
57730;SDS011;43570;47.476;19.040;2023-04-24T07:16:20;17.65;;;13.10;;
57730;SDS011;43570;47.476;19.040;2023-04-24T07:18:45;14.77;;;13.23;;
57730;SDS011;43570;47.476;19.040;2023-04-24T07:21:11;15.90;;;14.20;;
57730;SDS011;43570;47.476;19.040;2023-04-24T07:23:36;16.05;;;14.18;;
57730;SDS011;43570;47.476;19.040;2023-04-24T07:26:02;15.60;;;14.00;;
57730;SDS011;43570;47.476;19.040;2023-04-24T07:28:27;15.32;;;13.80;;
57730;SDS011;43570;47.476;19.040;2023-04-24T07:30:56;15.57;;;13.82;;
57730;SDS011;43570;47.476;19.040;2023-04-24T07:33:22;15.23;;;13.70;;
57730;SDS011;43570;47.476;19.040;2023-04-24T07:35:48;19.98;;;14.35;;
57730;SDS011;43570;47.476;19.040;2023-04-24T07:38:13;16.42;;;14.40;;
57730;SDS011;43570;47.476;19.040;2023-04-24T07:40:39;15.90;;;13.60;;
57730;SDS011;43570;47.476;19.040;2023-04-24T07:43:04;15.90;;;14.25;;
57730;SDS011;43570;47.476;19.040;2023-04-24T07:45:30;17.25;;;14.95;;
57730;SDS011;43570;47.476;19.040;2023-04-24T07:47:58;16.30;;;14.68;;
57730;SDS011;43570;47.476;19.040;2023-04-24T07:50:23;15.95;;;14.30;;
57730;SDS011;43570;47.476;19.040;2023-04-24T07:52:49;15.13;;;13.70;;
57730;SDS011;43570;47.476;19.040;2023-04-24T07:55:14;16.02;;;13.82;;
57730;SDS011;43570;47.476;19.040;2023-04-24T07:57:40;15.43;;;13.82;;
57730;SDS011;43570;47.476;19.040;2023-04-24T08:00:05;16.27;;;13.52;;
57730;SDS011;43570;47.476;19.040;2023-04-24T08:02:31;14.40;;;12.75;;
57730;SDS011;43570;47.476;19.040;2023-04-24T08:04:57;15.82;;;12.43;;
57730;SDS011;43570;47.476;19.040;2023-04-24T08:07:23;13.93;;;12.37;;
57730;SDS011;43570;47.476;19.040;2023-04-24T08:09:49;13.38;;;11.77;;
57730;SDS011;43570;47.476;19.040;2023-04-24T08:12:14;12.27;;;11.07;;
57730;SDS011;43570;47.476;19.040;2023-04-24T08:14:40;13.88;;;11.52;;
57730;SDS011;43570;47.476;19.040;2023-04-24T08:17:05;13.30;;;11.88;;
57730;SDS011;43570;47.476;19.040;2023-04-24T08:19:30;13.38;;;12.07;;
57730;SDS011;43570;47.476;19.040;2023-04-24T08:21:56;14.02;;;11.48;;
57730;SDS011;43570;47.476;19.040;2023-04-24T08:24:22;15.15;;;12.85;;
57730;SDS011;43570;47.476;19.040;2023-04-24T08:26:47;13.32;;;12.13;;
57730;SDS011;43570;47.476;19.040;2023-04-24T08:29:17;15.98;;;13.85;;
57730;SDS011;43570;47.476;19.040;2023-04-24T08:31:42;14.43;;;13.02;;
57730;SDS011;43570;47.476;19.040;2023-04-24T08:34:09;14.30;;;12.32;;
57730;SDS011;43570;47.476;19.040;2023-04-24T08:36:34;13.68;;;12.27;;
57730;SDS011;43570;47.476;19.040;2023-04-24T08:39:00;13.13;;;11.88;;
57730;SDS011;43570;47.476;19.040;2023-04-24T08:41:26;13.68;;;12.37;;
57730;SDS011;43570;47.476;19.040;2023-04-24T08:43:52;14.43;;;13.00;;
57730;SDS011;43570;47.476;19.040;2023-04-24T08:46:18;13.98;;;12.35;;
57730;SDS011;43570;47.476;19.040;2023-04-24T08:48:45;14.38;;;12.77;;
57730;SDS011;43570;47.476;19.040;2023-04-24T08:51:10;13.95;;;12.55;;
57730;SDS011;43570;47.476;19.040;2023-04-24T08:53:37;13.68;;;12.27;;
57730;SDS011;43570;47.476;19.040;2023-04-24T08:56:03;14.98;;;11.98;;
57730;SDS011;43570;47.476;19.040;2023-04-24T08:58:29;14.60;;;13.07;;
57730;SDS011;43570;47.476;19.040;2023-04-24T09:00:55;14.93;;;12.32;;
57730;SDS011;43570;47.476;19.040;2023-04-24T09:03:21;13.25;;;11.85;;
57730;SDS011;43570;47.476;19.040;2023-04-24T09:05:47;13.82;;;12.43;;
57730;SDS011;43570;47.476;19.040;2023-04-24T09:08:14;14.32;;;11.88;;
57730;SDS011;43570;47.476;19.040;2023-04-24T09:10:41;13.23;;;11.32;;
57730;SDS011;43570;47.476;19.040;2023-04-24T09:13:06;12.90;;;11.60;;
57730;SDS011;43570;47.476;19.040;2023-04-24T09:15:34;13.25;;;11.43;;
57730;SDS011;43570;47.476;19.040;2023-04-24T09:18:00;12.15;;;10.73;;
57730;SDS011;43570;47.476;19.040;2023-04-24T09:20:26;12.23;;;10.93;;
57730;SDS011;43570;47.476;19.040;2023-04-24T09:22:53;12.32;;;11.12;;
57730;SDS011;43570;47.476;19.040;2023-04-24T09:25:20;12.77;;;11.10;;
57730;SDS011;43570;47.476;19.040;2023-04-24T09:27:46;13.07;;;11.68;;
57730;SDS011;43570;47.476;19.040;2023-04-24T09:30:11;12.65;;;10.45;;
57730;SDS011;43570;47.476;19.040;2023-04-24T09:32:37;11.40;;;10.30;;
57730;SDS011;43570;47.476;19.040;2023-04-24T09:37:35;11.32;;;9.00;;
57730;SDS011;43570;47.476;19.040;2023-04-24T09:40:08;12.10;;;9.15;;
57730;SDS011;43570;47.476;19.040;2023-04-24T09:42:51;15.35;;;9.63;;
57730;SDS011;43570;47.476;19.040;2023-04-24T09:45:18;11.25;;;9.65;;
57730;SDS011;43570;47.476;19.040;2023-04-24T09:47:43;10.38;;;8.90;;
57730;SDS011;43570;47.476;19.040;2023-04-24T09:50:13;12.02;;;8.73;;
57730;SDS011;43570;47.476;19.040;2023-04-24T09:52:44;11.43;;;8.95;;
57730;SDS011;43570;47.476;19.040;2023-04-24T09:55:11;10.95;;;9.70;;
57730;SDS011;43570;47.476;19.040;2023-04-24T10:00:36;10.65;;;9.50;;
57730;SDS011;43570;47.476;19.040;2023-04-24T10:03:02;12.77;;;9.80;;
57730;SDS011;43570;47.476;19.040;2023-04-24T10:05:30;12.70;;;9.13;;
57730;SDS011;43570;47.476;19.040;2023-04-24T10:08:06;11.73;;;9.05;;
57730;SDS011;43570;47.476;19.040;2023-04-24T10:10:34;10.25;;;8.70;;
57730;SDS011;43570;47.476;19.040;2023-04-24T10:13:03;12.37;;;9.00;;
57730;SDS011;43570;47.476;19.040;2023-04-24T10:15:29;11.52;;;8.60;;
57730;SDS011;43570;47.476;19.040;2023-04-24T10:17:55;9.90;;;8.23;;
57730;SDS011;43570;47.476;19.040;2023-04-24T10:20:23;11.60;;;8.60;;
57730;SDS011;43570;47.476;19.040;2023-04-24T10:22:52;10.68;;;8.25;;
57730;SDS011;43570;47.476;19.040;2023-04-24T10:25:18;10.85;;;8.57;;
57730;SDS011;43570;47.476;19.040;2023-04-24T10:27:45;10.35;;;8.27;;
57730;SDS011;43570;47.476;19.040;2023-04-24T10:30:12;10.30;;;7.97;;
57730;SDS011;43570;47.476;19.040;2023-04-24T10:32:38;10.85;;;8.30;;
57730;SDS011;43570;47.476;19.040;2023-04-24T10:35:03;11.02;;;8.50;;
57730;SDS011;43570;47.476;19.040;2023-04-24T10:37:29;11.02;;;9.82;;
57730;SDS011;43570;47.476;19.040;2023-04-24T10:40:00;11.45;;;10.25;;
57730;SDS011;43570;47.476;19.040;2023-04-24T10:42:26;12.40;;;10.02;;
57730;SDS011;43570;47.476;19.040;2023-04-24T10:44:52;13.43;;;10.43;;
57730;SDS011;43570;47.476;19.040;2023-04-24T10:47:19;12.55;;;10.73;;
57730;SDS011;43570;47.476;19.040;2023-04-24T10:49:44;14.32;;;11.45;;
57730;SDS011;43570;47.476;19.040;2023-04-24T10:52:10;13.23;;;10.88;;
57730;SDS011;43570;47.476;19.040;2023-04-24T10:54:46;13.48;;;10.82;;
57730;SDS011;43570;47.476;19.040;2023-04-24T10:59:48;14.45;;;10.93;;
57730;SDS011;43570;47.476;19.040;2023-04-24T11:02:17;11.93;;;10.65;;
57730;SDS011;43570;47.476;19.040;2023-04-24T11:04:43;12.18;;;10.88;;
57730;SDS011;43570;47.476;19.040;2023-04-24T11:07:10;12.60;;;11.30;;
57730;SDS011;43570;47.476;19.040;2023-04-24T11:09:35;13.52;;;10.50;;
57730;SDS011;43570;47.476;19.040;2023-04-24T11:12:05;10.55;;;9.45;;
57730;SDS011;43570;47.476;19.040;2023-04-24T11:15:21;13.90;;;10.13;;
57730;SDS011;43570;47.476;19.040;2023-04-24T11:20:15;14.55;;;10.30;;
57730;SDS011;43570;47.476;19.040;2023-04-24T11:22:42;15.10;;;9.68;;
57730;SDS011;43570;47.476;19.040;2023-04-24T11:25:07;11.38;;;9.75;;
57730;SDS011;43570;47.476;19.040;2023-04-24T11:27:40;13.20;;;10.48;;
57730;SDS011;43570;47.476;19.040;2023-04-24T11:30:07;11.88;;;10.65;;
57730;SDS011;43570;47.476;19.040;2023-04-24T11:37:24;12.85;;;11.50;;
57730;SDS011;43570;47.476;19.040;2023-04-24T11:39:52;12.68;;;11.38;;
57730;SDS011;43570;47.476;19.040;2023-04-24T11:42:22;13.55;;;12.02;;
57730;SDS011;43570;47.476;19.040;2023-04-24T11:44:49;13.13;;;11.82;;
57730;SDS011;43570;47.476;19.040;2023-04-24T11:47:16;13.25;;;11.52;;
57730;SDS011;43570;47.476;19.040;2023-04-24T11:49:42;13.43;;;10.93;;
57730;SDS011;43570;47.476;19.040;2023-04-24T11:52:07;13.07;;;11.43;;
57730;SDS011;43570;47.476;19.040;2023-04-24T11:54:33;12.13;;;10.82;;
57730;SDS011;43570;47.476;19.040;2023-04-24T11:56:58;12.35;;;11.07;;
57730;SDS011;43570;47.476;19.040;2023-04-24T11:59:23;13.05;;;11.75;;
57730;SDS011;43570;47.476;19.040;2023-04-24T12:01:49;13.77;;;10.80;;
57730;SDS011;43570;47.476;19.040;2023-04-24T12:04:15;14.18;;;10.32;;
57730;SDS011;43570;47.476;19.040;2023-04-24T12:07:03;11.05;;;9.13;;
57730;SDS011;43570;47.476;19.040;2023-04-24T12:09:28;13.20;;;10.00;;
57730;SDS011;43570;47.476;19.040;2023-04-24T12:11:55;13.57;;;11.68;;
57730;SDS011;43570;47.476;19.040;2023-04-24T12:14:22;13.98;;;11.15;;
57730;SDS011;43570;47.476;19.040;2023-04-24T12:16:48;13.27;;;12.02;;
57730;SDS011;43570;47.476;19.040;2023-04-24T12:19:18;14.90;;;12.07;;
57730;SDS011;43570;47.476;19.040;2023-04-24T12:21:45;16.90;;;11.95;;
57730;SDS011;43570;47.476;19.040;2023-04-24T12:24:24;13.95;;;10.88;;
57730;SDS011;43570;47.476;19.040;2023-04-24T12:26:50;15.38;;;11.73;;
57730;SDS011;43570;47.476;19.040;2023-04-24T12:29:20;13.27;;;11.32;;
57730;SDS011;43570;47.476;19.040;2023-04-24T12:31:46;14.05;;;11.38;;
57730;SDS011;43570;47.476;19.040;2023-04-24T12:34:21;12.13;;;10.50;;
57730;SDS011;43570;47.476;19.040;2023-04-24T12:36:48;13.38;;;11.88;;
57730;SDS011;43570;47.476;19.040;2023-04-24T12:39:17;13.98;;;11.27;;
57730;SDS011;43570;47.476;19.040;2023-04-24T12:41:53;15.25;;;11.95;;
57730;SDS011;43570;47.476;19.040;2023-04-24T12:44:55;12.55;;;10.98;;
57730;SDS011;43570;47.476;19.040;2023-04-24T12:47:14;13.98;;;11.35;;
57730;SDS011;43570;47.476;19.040;2023-04-24T12:49:39;11.48;;;9.57;;
57730;SDS011;43570;47.476;19.040;2023-04-24T12:52:04;11.20;;;9.27;;
57730;SDS011;43570;47.476;19.040;2023-04-24T12:54:32;11.63;;;9.40;;
57730;SDS011;43570;47.476;19.040;2023-04-24T12:56:57;12.73;;;10.07;;
57730;SDS011;43570;47.476;19.040;2023-04-24T12:59:23;11.43;;;10.20;;
57730;SDS011;43570;47.476;19.040;2023-04-24T13:01:48;11.95;;;9.45;;
57730;SDS011;43570;47.476;19.040;2023-04-24T13:04:14;12.82;;;9.93;;
57730;SDS011;43570;47.476;19.040;2023-04-24T13:06:39;11.32;;;9.60;;
57730;SDS011;43570;47.476;19.040;2023-04-24T13:09:05;12.18;;;8.88;;
57730;SDS011;43570;47.476;19.040;2023-04-24T13:11:30;10.02;;;8.80;;
57730;SDS011;43570;47.476;19.040;2023-04-24T13:13:55;12.48;;;8.73;;
57730;SDS011;43570;47.476;19.040;2023-04-24T13:16:21;12.48;;;8.50;;
57730;SDS011;43570;47.476;19.040;2023-04-24T13:18:48;10.30;;;7.60;;
57730;SDS011;43570;47.476;19.040;2023-04-24T13:21:13;9.00;;;7.30;;
57730;SDS011;43570;47.476;19.040;2023-04-24T13:23:39;11.10;;;6.55;;
57730;SDS011;43570;47.476;19.040;2023-04-24T13:26:04;9.20;;;6.53;;
57730;SDS011;43570;47.476;19.040;2023-04-24T13:28:30;9.65;;;6.68;;
57730;SDS011;43570;47.476;19.040;2023-04-24T13:30:55;7.95;;;6.00;;
57730;SDS011;43570;47.476;19.040;2023-04-24T13:33:21;9.65;;;6.00;;
57730;SDS011;43570;47.476;19.040;2023-04-24T13:35:46;7.40;;;5.50;;
57730;SDS011;43570;47.476;19.040;2023-04-24T13:38:11;12.90;;;5.75;;
57730;SDS011;43570;47.476;19.040;2023-04-24T13:40:37;6.78;;;5.53;;
57730;SDS011;43570;47.476;19.040;2023-04-24T13:43:02;9.02;;;6.47;;
57730;SDS011;43570;47.476;19.040;2023-04-24T13:45:28;9.13;;;5.22;;
57730;SDS011;43570;47.476;19.040;2023-04-24T13:47:53;13.55;;;6.15;;
57730;SDS011;43570;47.476;19.040;2023-04-24T13:50:19;7.93;;;5.30;;
57730;SDS011;43570;47.476;19.040;2023-04-24T13:52:45;11.32;;;6.53;;
57730;SDS011;43570;47.476;19.040;2023-04-24T13:55:10;8.73;;;5.82;;
57730;SDS011;43570;47.476;19.040;2023-04-24T13:57:36;10.43;;;6.95;;
57730;SDS011;43570;47.476;19.040;2023-04-24T14:00:01;8.57;;;7.03;;
57730;SDS011;43570;47.476;19.040;2023-04-24T14:02:28;8.93;;;7.60;;
57730;SDS011;43570;47.476;19.040;2023-04-24T14:04:54;12.00;;;8.15;;
57730;SDS011;43570;47.476;19.040;2023-04-24T14:07:19;10.43;;;9.27;;
57730;SDS011;43570;47.476;19.040;2023-04-24T14:09:45;12.02;;;9.57;;
57730;SDS011;43570;47.476;19.040;2023-04-24T14:12:10;13.88;;;10.00;;
57730;SDS011;43570;47.476;19.040;2023-04-24T14:14:36;13.55;;;9.13;;
57730;SDS011;43570;47.476;19.040;2023-04-24T14:17:01;11.10;;;9.95;;
57730;SDS011;43570;47.476;19.040;2023-04-24T14:19:26;14.02;;;9.57;;
57730;SDS011;43570;47.476;19.040;2023-04-24T14:21:52;16.62;;;10.98;;
57730;SDS011;43570;47.476;19.040;2023-04-24T14:24:18;14.63;;;10.48;;